createdAt,value
2023-03-16T00:00:09.780Z,15.27
2023-03-16T00:02:31.251Z,15.37
2023-03-16T00:04:52.740Z,15.80
2023-03-16T00:07:14.828Z,15.33
2023-03-16T00:09:41.056Z,16.40
2023-03-16T00:12:03.302Z,14.73
2023-03-16T00:14:25.979Z,15.07
2023-03-16T00:16:47.504Z,19.70
2023-03-16T00:19:08.981Z,16.47
2023-03-16T00:21:32.121Z,13.47
2023-03-16T00:23:53.619Z,16.60
2023-03-16T00:26:15.124Z,16.30
2023-03-16T00:28:36.973Z,12.73
2023-03-16T00:30:59.271Z,11.67
2023-03-16T00:33:20.858Z,15.23
2023-03-16T00:35:49.997Z,13.30
2023-03-16T00:38:11.911Z,13.03
2023-03-16T00:40:33.954Z,11.07
2023-03-16T00:42:55.683Z,13.43
2023-03-16T00:45:17.221Z,9.93
2023-03-16T00:47:38.720Z,13.73
2023-03-16T00:50:01.267Z,14.07
2023-03-16T00:52:23.624Z,13.07
2023-03-16T00:54:47.060Z,14.27
2023-03-16T00:57:09.301Z,10.83
2023-03-16T00:59:31.311Z,10.97
2023-03-16T01:01:53.885Z,12.23
2023-03-16T01:04:15.416Z,17.20
2023-03-16T01:06:38.822Z,11.60
2023-03-16T01:09:02.692Z,12.03
2023-03-16T01:11:24.237Z,12.57
2023-03-16T01:13:47.352Z,15.03
2023-03-16T01:16:09.965Z,15.33
2023-03-16T01:18:34.812Z,23.70
2023-03-16T01:20:56.294Z,21.13
2023-03-16T01:23:18.386Z,69.00
2023-03-16T01:25:41.276Z,47.83
2023-03-16T01:28:03.645Z,31.63
2023-03-16T01:30:25.521Z,22.77
2023-03-16T01:32:47.334Z,20.47
2023-03-16T01:35:09.358Z,18.43
2023-03-16T01:37:31.711Z,12.17
2023-03-16T01:39:53.242Z,13.23
2023-03-16T01:42:14.812Z,10.77
2023-03-16T01:44:56.647Z,8.43
2023-03-16T01:47:18.506Z,11.47
2023-03-16T01:49:40.033Z,12.70
2023-03-16T01:52:07.416Z,9.37
2023-03-16T01:54:48.445Z,8.77
2023-03-16T01:57:21.996Z,9.20
2023-03-16T01:59:50.559Z,8.20
2023-03-16T02:02:15.468Z,7.77
2023-03-16T02:04:51.126Z,10.83
2023-03-16T02:07:13.223Z,8.87
2023-03-16T02:09:39.074Z,12.67
2023-03-16T02:12:01.368Z,13.80
2023-03-16T02:14:24.907Z,14.47
2023-03-16T02:16:47.574Z,11.70
2023-03-16T02:19:16.192Z,11.07
2023-03-16T02:21:45.643Z,11.47
2023-03-16T02:24:07.335Z,9.17
2023-03-16T02:26:51.497Z,13.17
2023-03-16T02:29:48.981Z,10.70
2023-03-16T02:32:11.854Z,9.93
2023-03-16T02:34:33.417Z,10.23
2023-03-16T02:36:57.007Z,6.53
2023-03-16T02:39:18.888Z,10.20
2023-03-16T02:41:41.811Z,12.20
2023-03-16T02:44:26.502Z,16.17
2023-03-16T02:46:48.480Z,13.13
2023-03-16T02:49:31.876Z,11.93
2023-03-16T02:51:53.659Z,8.53
2023-03-16T02:54:15.156Z,11.10
2023-03-16T02:56:36.702Z,8.83
2023-03-16T02:58:58.247Z,11.13
2023-03-16T03:01:19.784Z,10.03
2023-03-16T03:03:41.255Z,9.93
2023-03-16T03:06:02.788Z,7.03
2023-03-16T03:08:24.322Z,10.13
2023-03-16T03:10:46.252Z,12.30
2023-03-16T03:13:07.818Z,12.03
2023-03-16T03:15:29.330Z,10.27
2023-03-16T03:17:50.825Z,10.40
2023-03-16T03:20:19.958Z,11.60
2023-03-16T03:22:42.023Z,11.33
2023-03-16T03:25:03.506Z,9.17
2023-03-16T03:27:25.041Z,8.27
2023-03-16T03:29:46.569Z,10.00
2023-03-16T03:32:08.365Z,7.33
2023-03-16T03:34:31.367Z,11.30
2023-03-16T03:36:53.684Z,10.10
2023-03-16T03:39:15.139Z,8.73
2023-03-16T03:41:36.794Z,9.57
2023-03-16T03:43:59.901Z,9.93
2023-03-16T03:46:21.553Z,8.10
2023-03-16T03:48:43.069Z,11.53
2023-03-16T03:51:05.680Z,11.33
2023-03-16T03:53:27.129Z,9.40
2023-03-16T03:55:49.938Z,7.67
2023-03-16T03:58:12.201Z,9.47
2023-03-16T04:00:34.009Z,6.37
2023-03-16T04:02:55.616Z,9.77
2023-03-16T04:05:17.307Z,8.43
2023-03-16T04:07:39.144Z,8.00
2023-03-16T04:10:01.078Z,8.00
2023-03-16T04:12:23.170Z,10.97
2023-03-16T04:14:44.746Z,9.80
2023-03-16T04:17:06.172Z,10.23
2023-03-16T04:19:28.615Z,11.73
2023-03-16T04:21:50.586Z,10.53
2023-03-16T04:24:14.790Z,14.20
2023-03-16T04:26:36.326Z,26.90
2023-03-16T04:28:58.633Z,21.93
2023-03-16T04:31:20.206Z,19.07
2023-03-16T04:33:42.352Z,15.57
2023-03-16T04:36:05.668Z,16.83
2023-03-16T04:38:27.111Z,16.60
2023-03-16T04:40:48.508Z,13.50
2023-03-16T04:43:09.930Z,15.23
2023-03-16T04:45:32.886Z,12.07
2023-03-16T04:47:54.313Z,13.13
2023-03-16T04:50:15.941Z,10.47
2023-03-16T04:52:37.837Z,9.87
2023-03-16T04:54:59.286Z,9.67
2023-03-16T04:57:20.813Z,9.30
2023-03-16T04:59:42.353Z,8.50
2023-03-16T05:02:04.122Z,9.17
2023-03-16T05:04:25.558Z,9.13
2023-03-16T05:06:47.070Z,7.80
2023-03-16T05:09:08.933Z,12.80
2023-03-16T05:11:30.696Z,12.73
2023-03-16T05:13:52.285Z,13.47
2023-03-16T05:16:13.825Z,11.40
2023-03-16T05:18:35.368Z,12.63
2023-03-16T05:20:56.896Z,19.70
2023-03-16T05:23:18.334Z,8.33
2023-03-16T05:25:40.456Z,10.23
2023-03-16T05:28:02.100Z,7.87
2023-03-16T05:30:23.644Z,24.93
2023-03-16T05:32:45.812Z,190.93
2023-03-16T05:35:07.627Z,201.73
2023-03-16T05:37:29.823Z,82.13
2023-03-16T05:39:51.252Z,31.27
2023-03-16T05:42:12.714Z,14.07
2023-03-16T05:44:34.414Z,12.13
2023-03-16T05:46:56.058Z,11.30
2023-03-16T05:49:17.805Z,9.10
2023-03-16T05:51:39.270Z,11.30
2023-03-16T05:54:00.729Z,9.93
2023-03-16T05:56:24.808Z,12.63
2023-03-16T05:58:46.358Z,13.03
2023-03-16T06:01:09.577Z,11.57
2023-03-16T06:03:31.451Z,10.33
2023-03-16T06:05:53.511Z,9.63
2023-03-16T06:08:15.502Z,12.07
2023-03-16T06:10:36.993Z,9.80
2023-03-16T06:12:59.905Z,13.37
2023-03-16T06:15:25.076Z,9.97
2023-03-16T06:17:46.616Z,12.13
2023-03-16T06:20:11.389Z,11.37
2023-03-16T06:22:33.000Z,8.93
2023-03-16T06:24:54.453Z,11.87
2023-03-16T06:27:15.872Z,10.07
2023-03-16T06:29:37.438Z,10.33
2023-03-16T06:31:58.903Z,10.50
2023-03-16T06:34:20.916Z,13.60
2023-03-16T06:36:42.344Z,11.30
2023-03-16T06:39:04.540Z,11.70
2023-03-16T06:41:26.052Z,10.97
2023-03-16T06:43:47.510Z,14.07
2023-03-16T06:46:09.307Z,11.73
2023-03-16T06:48:31.307Z,15.07
2023-03-16T06:50:52.899Z,11.83
2023-03-16T06:53:14.512Z,12.87
2023-03-16T06:55:35.996Z,10.87
2023-03-16T06:57:57.441Z,11.60
2023-03-16T07:00:19.424Z,12.37
2023-03-16T07:02:42.556Z,11.70
2023-03-16T07:05:04.301Z,11.60
2023-03-16T07:07:27.277Z,12.13
2023-03-16T07:09:49.175Z,11.30
2023-03-16T07:12:10.885Z,10.63
2023-03-16T07:14:32.325Z,10.47
2023-03-16T07:16:53.910Z,10.77
2023-03-16T07:19:15.429Z,12.20
2023-03-16T07:21:40.754Z,12.53
2023-03-16T07:24:02.240Z,10.07
2023-03-16T07:26:23.682Z,11.53
2023-03-16T07:28:45.101Z,10.23
2023-03-16T07:31:07.357Z,10.00
2023-03-16T07:33:28.783Z,12.20
2023-03-16T07:35:50.254Z,10.43
2023-03-16T07:38:12.291Z,12.10
2023-03-16T07:40:34.805Z,11.33
2023-03-16T07:42:56.497Z,11.27
2023-03-16T07:45:18.192Z,13.30
2023-03-16T07:47:39.649Z,12.97
2023-03-16T07:50:01.429Z,10.17
2023-03-16T07:52:24.090Z,12.63
2023-03-16T07:54:45.579Z,9.90
2023-03-16T07:57:07.778Z,11.40
2023-03-16T07:59:29.357Z,10.37
2023-03-16T08:01:50.803Z,12.70
2023-03-16T08:04:12.597Z,11.87
2023-03-16T08:06:34.020Z,11.23
2023-03-16T08:08:55.534Z,10.50
2023-03-16T08:11:23.639Z,11.77
2023-03-16T08:13:46.965Z,12.87
2023-03-16T08:16:10.629Z,12.43
2023-03-16T08:18:32.262Z,12.03
2023-03-16T08:20:54.868Z,12.63
2023-03-16T08:23:17.291Z,11.43
2023-03-16T08:25:38.804Z,10.67
2023-03-16T08:28:00.258Z,13.33
2023-03-16T08:30:22.831Z,11.70
2023-03-16T08:32:44.507Z,12.90
2023-03-16T08:35:08.333Z,13.27
2023-03-16T08:37:29.782Z,12.77
2023-03-16T08:39:51.599Z,11.27
2023-03-16T08:42:15.266Z,11.03
2023-03-16T08:44:37.228Z,11.20
2023-03-16T08:47:01.578Z,10.90
2023-03-16T08:49:24.069Z,11.17
2023-03-16T08:51:46.546Z,11.40
2023-03-16T08:54:08.012Z,9.10
2023-03-16T08:56:30.535Z,11.80
2023-03-16T08:58:52.193Z,10.27
2023-03-16T09:01:17.453Z,10.17
2023-03-16T09:03:40.674Z,8.47
2023-03-16T09:06:04.909Z,9.83
2023-03-16T09:08:26.386Z,8.30
2023-03-16T09:10:47.831Z,11.20
2023-03-16T09:13:09.244Z,8.93
2023-03-16T09:15:31.525Z,10.97
2023-03-16T09:17:54.375Z,10.37
2023-03-16T09:20:22.655Z,9.97
2023-03-16T09:22:48.181Z,9.80
2023-03-16T09:25:11.291Z,8.73
2023-03-16T09:27:33.907Z,8.17
2023-03-16T09:29:56.540Z,11.03
2023-03-16T09:32:18.345Z,8.97
2023-03-16T09:34:40.281Z,10.50
2023-03-16T09:37:02.576Z,11.80
2023-03-16T09:39:24.084Z,8.87
2023-03-16T09:41:53.974Z,8.53
2023-03-16T09:44:22.675Z,9.23
2023-03-16T09:46:46.363Z,9.30
2023-03-16T09:49:10.874Z,7.77
2023-03-16T09:51:38.581Z,10.97
2023-03-16T09:54:03.058Z,9.87
2023-03-16T09:56:33.856Z,9.53
2023-03-16T09:58:56.139Z,11.73
2023-03-16T10:01:50.299Z,9.13
2023-03-16T10:05:03.144Z,9.80
2023-03-16T10:07:50.056Z,8.70
2023-03-16T10:10:11.468Z,9.53
2023-03-16T10:12:41.521Z,9.17
2023-03-16T10:15:08.492Z,10.17
2023-03-16T10:17:38.814Z,7.67
2023-03-16T10:20:08.961Z,8.60
2023-03-16T10:22:33.613Z,12.83
2023-03-16T10:25:01.460Z,10.53
2023-03-16T10:27:29.694Z,12.53
2023-03-16T10:29:51.331Z,14.30
2023-03-16T10:32:16.998Z,8.07
2023-03-16T10:34:38.541Z,9.07
2023-03-16T10:37:02.924Z,8.03
2023-03-16T10:39:24.410Z,11.00
2023-03-16T10:41:56.105Z,9.87
2023-03-16T10:44:24.622Z,8.80
2023-03-16T10:46:58.263Z,7.60
2023-03-16T10:49:49.056Z,9.00
2023-03-16T10:52:23.950Z,13.50
2023-03-16T10:54:55.123Z,8.63
2023-03-16T10:57:22.689Z,12.27
2023-03-16T10:59:49.709Z,10.30
2023-03-16T11:02:20.749Z,8.17
2023-03-16T11:04:42.733Z,7.97
2023-03-16T11:07:09.789Z,7.03
2023-03-16T11:09:33.760Z,6.50
2023-03-16T11:11:55.461Z,7.87
2023-03-16T11:14:21.056Z,7.37
2023-03-16T11:16:52.041Z,5.57
2023-03-16T11:19:34.667Z,7.37
2023-03-16T11:22:06.469Z,8.30
2023-03-16T11:24:59.323Z,8.90
2023-03-16T11:27:25.148Z,7.00
2023-03-16T11:30:05.399Z,7.63
2023-03-16T11:32:33.325Z,7.77
2023-03-16T11:34:54.848Z,4.47
2023-03-16T11:37:28.593Z,3.63
2023-03-16T11:40:15.179Z,5.90
2023-03-16T11:42:44.065Z,5.83
2023-03-16T11:45:20.539Z,5.67
2023-03-16T11:47:54.068Z,4.17
2023-03-16T11:50:25.478Z,3.83
2023-03-16T11:53:17.364Z,5.77
2023-03-16T11:56:08.037Z,6.27
2023-03-16T11:58:57.273Z,5.67
2023-03-16T12:01:43.074Z,6.13
2023-03-16T12:04:10.602Z,5.70
2023-03-16T12:06:47.019Z,5.10
2023-03-16T12:09:30.232Z,4.47
2023-03-16T12:12:23.835Z,6.40
2023-03-16T12:14:55.356Z,4.17
2023-03-16T12:17:23.263Z,6.00
2023-03-16T12:19:54.076Z,5.43
2023-03-16T12:22:24.289Z,5.47
2023-03-16T12:24:47.135Z,6.17
2023-03-16T12:27:15.881Z,3.47
2023-03-16T12:30:02.516Z,6.10
2023-03-16T12:32:38.452Z,4.73
2023-03-16T12:35:34.000Z,5.47
2023-03-16T12:38:20.866Z,5.97
2023-03-16T12:40:55.753Z,5.50
2023-03-16T12:43:37.176Z,6.23
2023-03-16T12:46:12.542Z,6.37
2023-03-16T12:48:40.237Z,5.17
2023-03-16T12:51:05.059Z,6.00
2023-03-16T12:53:48.385Z,4.97
2023-03-16T12:56:13.382Z,4.60
2023-03-16T12:58:34.931Z,5.27
2023-03-16T13:00:59.571Z,4.17
2023-03-16T13:03:23.164Z,4.87
2023-03-16T13:05:49.849Z,4.67
2023-03-16T13:08:15.872Z,6.70
2023-03-16T13:10:38.756Z,4.77
2023-03-16T13:13:25.527Z,4.57
2023-03-16T13:15:47.618Z,4.67
2023-03-16T13:18:09.099Z,4.57
2023-03-16T13:20:34.029Z,6.10
2023-03-16T13:23:18.367Z,3.67
2023-03-16T13:26:03.234Z,3.20
2023-03-16T13:28:29.964Z,5.43
2023-03-16T13:30:51.491Z,6.57
2023-03-16T13:33:20.781Z,4.17
2023-03-16T13:35:42.296Z,3.08
2023-03-16T13:38:08.059Z,5.63
2023-03-16T13:40:29.744Z,3.15
2023-03-16T13:42:53.248Z,3.22
2023-03-16T13:45:19.362Z,3.28
2023-03-16T13:47:45.336Z,2.90
2023-03-16T13:50:11.792Z,3.03
2023-03-16T13:52:35.260Z,4.72
2023-03-16T13:55:02.030Z,3.00
2023-03-16T13:57:27.108Z,4.93
2023-03-16T13:59:48.746Z,4.18
2023-03-16T14:02:17.910Z,3.30
2023-03-16T14:04:39.400Z,1.98
2023-03-16T14:07:03.750Z,2.77
2023-03-16T14:09:28.746Z,5.13
2023-03-16T14:11:50.316Z,2.60
2023-03-16T14:14:17.148Z,2.93
2023-03-16T14:16:38.697Z,2.23
2023-03-16T14:19:08.155Z,2.20
2023-03-16T14:21:31.909Z,3.00
2023-03-16T14:24:07.797Z,2.42
2023-03-16T14:26:43.338Z,3.03
2023-03-16T14:29:25.051Z,3.40
2023-03-16T14:31:46.521Z,2.95
2023-03-16T14:34:29.468Z,1.92
2023-03-16T14:36:51.219Z,2.30
2023-03-16T14:39:16.846Z,4.03
2023-03-16T14:41:39.909Z,4.07
2023-03-16T14:44:03.059Z,3.28
2023-03-16T14:46:31.002Z,2.65
2023-03-16T14:48:52.475Z,2.10
2023-03-16T14:51:15.082Z,2.63
2023-03-16T14:53:37.248Z,4.27
2023-03-16T14:55:59.467Z,2.60
2023-03-16T14:58:21.374Z,2.20
2023-03-16T15:00:52.637Z,4.00
2023-03-16T15:03:17.447Z,3.47
2023-03-16T15:05:41.856Z,3.28
2023-03-16T15:08:05.805Z,3.05
2023-03-16T15:10:35.320Z,4.03
2023-03-16T15:13:06.040Z,3.42
2023-03-16T15:15:28.650Z,4.10
2023-03-16T15:17:52.162Z,2.87
2023-03-16T15:20:15.652Z,2.47
2023-03-16T15:22:39.181Z,2.67
2023-03-16T15:25:18.077Z,2.40
2023-03-16T15:27:39.563Z,3.93
2023-03-16T15:30:01.907Z,3.43
2023-03-16T15:32:23.632Z,4.70
2023-03-16T15:34:46.665Z,3.53
2023-03-16T15:37:17.238Z,3.93
2023-03-16T15:39:38.747Z,3.50
2023-03-16T15:42:00.495Z,4.13
2023-03-16T15:44:22.855Z,3.17
2023-03-16T15:46:44.504Z,4.40
2023-03-16T15:49:06.512Z,3.40
2023-03-16T15:51:30.459Z,3.87
2023-03-16T15:53:57.773Z,5.47
2023-03-16T15:56:29.228Z,4.20
2023-03-16T15:58:50.978Z,5.37
2023-03-16T16:01:25.454Z,3.00
2023-03-16T16:03:47.247Z,3.30
2023-03-16T16:06:17.419Z,4.10
2023-03-16T16:08:38.859Z,3.17
2023-03-16T16:11:00.385Z,2.97
2023-03-16T16:13:43.537Z,2.60
2023-03-16T16:16:06.777Z,3.50
2023-03-16T16:18:31.948Z,5.43
2023-03-16T16:20:53.989Z,2.63
2023-03-16T16:23:15.488Z,2.57
2023-03-16T16:25:41.363Z,2.93
2023-03-16T16:28:03.074Z,3.30
2023-03-16T16:30:31.367Z,2.40
2023-03-16T16:32:53.387Z,3.80
2023-03-16T16:35:17.463Z,2.93
2023-03-16T16:37:38.992Z,5.87
2023-03-16T16:40:00.501Z,5.40
2023-03-16T16:42:22.031Z,4.97
2023-03-16T16:44:44.156Z,5.83
2023-03-16T16:47:18.458Z,3.40
2023-03-16T16:49:40.162Z,4.07
2023-03-16T16:52:02.262Z,6.27
2023-03-16T16:54:26.189Z,5.63
2023-03-16T16:56:50.069Z,3.77
2023-03-16T16:59:24.756Z,3.57
2023-03-16T17:01:48.160Z,5.10
2023-03-16T17:04:15.162Z,3.03
2023-03-16T17:06:36.865Z,5.00
2023-03-16T17:08:58.342Z,2.10
2023-03-16T17:11:23.917Z,4.13
2023-03-16T17:13:46.965Z,5.37
2023-03-16T17:16:16.700Z,3.30
2023-03-16T17:18:39.127Z,3.97
2023-03-16T17:21:00.632Z,6.73
2023-03-16T17:23:34.506Z,9.73
2023-03-16T17:25:58.619Z,4.33
2023-03-16T17:28:20.485Z,5.63
2023-03-16T17:30:42.687Z,6.20
2023-03-16T17:33:13.232Z,2.93
2023-03-16T17:35:34.844Z,3.63
2023-03-16T17:37:56.882Z,7.97
2023-03-16T17:40:25.437Z,6.43
2023-03-16T17:42:48.324Z,3.17
2023-03-16T17:45:17.794Z,3.23
2023-03-16T17:47:39.666Z,5.47
2023-03-16T17:50:01.380Z,4.10
2023-03-16T17:52:25.784Z,3.97
2023-03-16T17:54:48.572Z,3.47
2023-03-16T17:57:17.163Z,4.20
2023-03-16T17:59:38.789Z,3.57
2023-03-16T18:02:00.507Z,4.20
2023-03-16T18:04:24.587Z,3.33
2023-03-16T18:06:47.511Z,3.00
2023-03-16T18:09:09.704Z,2.80
2023-03-16T18:11:35.593Z,3.07
2023-03-16T18:13:57.374Z,4.70
2023-03-16T18:16:23.366Z,5.70
2023-03-16T18:18:44.890Z,5.30
2023-03-16T18:21:06.408Z,4.60
2023-03-16T18:23:30.539Z,2.77
2023-03-16T18:25:54.749Z,4.03
2023-03-16T18:28:17.266Z,5.37
2023-03-16T18:30:39.781Z,4.10
2023-03-16T18:33:03.054Z,4.00
2023-03-16T18:35:24.724Z,3.77
2023-03-16T18:37:46.404Z,2.83
2023-03-16T18:40:12.756Z,3.73
2023-03-16T18:42:34.237Z,3.63
2023-03-16T18:44:55.699Z,4.33
2023-03-16T18:47:20.141Z,4.53
2023-03-16T18:49:41.673Z,4.67
2023-03-16T18:52:04.312Z,4.37
2023-03-16T18:54:28.596Z,3.47
2023-03-16T18:56:50.183Z,3.27
2023-03-16T18:59:12.579Z,4.40
2023-03-16T19:01:38.711Z,2.90
2023-03-16T19:04:02.089Z,4.90
2023-03-16T19:06:30.958Z,6.43
2023-03-16T19:08:52.951Z,4.47
2023-03-16T19:11:14.932Z,2.97
2023-03-16T19:13:36.383Z,3.70
2023-03-16T19:15:58.096Z,3.27
2023-03-16T19:18:19.963Z,8.97
2023-03-16T19:20:43.773Z,6.17
2023-03-16T19:23:26.165Z,4.03
2023-03-16T19:25:48.217Z,3.50
2023-03-16T19:28:16.349Z,3.63
2023-03-16T19:30:38.545Z,4.33
2023-03-16T19:33:00.393Z,3.50
2023-03-16T19:35:33.178Z,2.93
2023-03-16T19:38:02.646Z,2.67
2023-03-16T19:40:25.469Z,2.97
2023-03-16T19:42:47.619Z,3.90
2023-03-16T19:45:23.393Z,4.03
2023-03-16T19:47:45.975Z,2.23
2023-03-16T19:50:19.254Z,3.07
2023-03-16T19:52:40.654Z,3.03
2023-03-16T19:55:02.245Z,2.50
2023-03-16T19:57:24.240Z,3.53
2023-03-16T19:59:56.944Z,3.13
2023-03-16T20:02:37.525Z,2.53
2023-03-16T20:04:58.995Z,3.03
2023-03-16T20:07:21.341Z,2.63
2023-03-16T20:09:43.215Z,4.27
2023-03-16T20:12:04.702Z,3.43
2023-03-16T20:14:33.456Z,2.93
2023-03-16T20:16:55.118Z,3.77
2023-03-16T20:19:16.668Z,3.90
2023-03-16T20:21:38.148Z,2.73
2023-03-16T20:23:59.609Z,4.87
2023-03-16T20:26:32.252Z,3.20
2023-03-16T20:28:53.841Z,3.83
2023-03-16T20:31:24.122Z,4.80
2023-03-16T20:33:46.347Z,4.03
2023-03-16T20:36:12.307Z,3.47
2023-03-16T20:38:33.837Z,3.20
2023-03-16T20:40:56.004Z,3.13
2023-03-16T20:43:25.326Z,5.70
2023-03-16T20:45:46.915Z,3.77
2023-03-16T20:48:15.700Z,4.27
2023-03-16T20:50:37.133Z,5.10
2023-03-16T20:52:58.582Z,3.40
2023-03-16T20:55:23.332Z,4.50
2023-03-16T20:57:44.864Z,5.80
2023-03-16T21:03:50.346Z,7.50
2023-03-16T21:06:23.486Z,6.30
2023-03-16T21:08:44.935Z,4.93
2023-03-16T21:11:21.815Z,5.03
2023-03-16T21:13:43.257Z,5.23
2023-03-16T21:16:05.367Z,5.07
2023-03-16T21:18:27.799Z,6.07
2023-03-16T21:20:50.614Z,4.43
2023-03-16T21:23:18.198Z,4.83
2023-03-16T21:25:44.955Z,7.23
2023-03-16T21:28:07.132Z,5.57
2023-03-16T21:30:37.636Z,4.97
2023-03-16T21:33:01.757Z,6.47
2023-03-16T21:35:33.021Z,4.67
2023-03-16T21:37:54.528Z,5.50
2023-03-16T21:40:22.130Z,5.20
2023-03-16T21:42:44.564Z,5.27
2023-03-16T21:45:06.625Z,5.47
2023-03-16T21:47:29.317Z,7.53
2023-03-16T21:49:51.242Z,8.40
2023-03-16T21:52:28.130Z,4.50
2023-03-16T21:54:50.966Z,5.37
2023-03-16T21:57:15.238Z,5.57
2023-03-16T21:59:36.948Z,7.10
2023-03-16T22:02:01.983Z,5.03
2023-03-16T22:04:23.944Z,5.00
2023-03-16T22:06:46.002Z,3.97
2023-03-16T22:09:15.411Z,7.17
2023-03-16T22:11:36.849Z,10.73
2023-03-16T22:13:59.449Z,8.60
2023-03-16T22:16:23.476Z,6.10
2023-03-16T22:18:47.123Z,5.83
2023-03-16T22:21:32.992Z,5.90
2023-03-16T22:23:56.372Z,9.07
2023-03-16T22:26:20.626Z,6.53
2023-03-16T22:28:42.637Z,9.23
2023-03-16T22:31:05.186Z,7.10
2023-03-16T22:33:29.935Z,6.27
2023-03-16T22:35:52.604Z,7.33
2023-03-16T22:38:15.023Z,6.30
2023-03-16T22:40:39.167Z,5.53
2023-03-16T22:43:04.059Z,6.90
2023-03-16T22:45:28.572Z,8.53
2023-03-16T22:47:51.054Z,9.43
2023-03-16T22:50:17.961Z,7.13
2023-03-16T22:52:39.488Z,7.57
2023-03-16T22:55:03.237Z,5.57
2023-03-16T22:57:25.037Z,5.53
2023-03-16T22:59:48.377Z,5.30
2023-03-16T23:02:18.315Z,5.13
2023-03-16T23:04:39.945Z,7.00
2023-03-16T23:07:02.145Z,5.80
2023-03-16T23:09:23.729Z,4.80
2023-03-16T23:11:47.217Z,5.70
2023-03-16T23:14:24.185Z,5.10
2023-03-16T23:16:46.713Z,5.17
2023-03-16T23:19:34.660Z,5.73
2023-03-16T23:21:59.718Z,4.30
2023-03-16T23:24:22.251Z,6.30
2023-03-16T23:26:44.369Z,5.20
2023-03-16T23:29:06.074Z,4.00
2023-03-16T23:31:27.743Z,4.63
2023-03-16T23:33:49.180Z,5.83
2023-03-16T23:36:19.680Z,4.60
2023-03-16T23:38:41.285Z,6.57
2023-03-16T23:41:02.765Z,5.60
2023-03-16T23:43:24.241Z,4.33
2023-03-16T23:45:46.803Z,5.73
2023-03-16T23:48:14.994Z,5.60
2023-03-16T23:50:37.725Z,3.90
2023-03-16T23:52:59.392Z,4.47
2023-03-16T23:55:21.426Z,3.73
2023-03-16T23:57:42.897Z,6.87
